createdAt,value
2018-09-30T00:00:32.961Z,100529.11
2018-09-30T00:03:00.502Z,100527.41
2018-09-30T00:05:29.259Z,100524.87
2018-09-30T00:07:57.266Z,100523.61
2018-09-30T00:10:24.789Z,100513.98
2018-09-30T00:12:52.312Z,100514.53
2018-09-30T00:15:21.180Z,100510.70
2018-09-30T00:17:49.610Z,100511.70
2018-09-30T00:20:17.207Z,100508.36
2018-09-30T00:22:45.115Z,100510.39
2018-09-30T00:25:19.111Z,100508.81
2018-09-30T00:27:46.671Z,100505.95
2018-09-30T00:30:14.622Z,100500.80
2018-09-30T00:32:42.184Z,100493.44
2018-09-30T00:35:10.579Z,100495.75
2018-09-30T00:37:38.480Z,100493.18
2018-09-30T00:40:06.094Z,100487.61
2018-09-30T00:42:33.645Z,100482.40
2018-09-30T00:45:01.660Z,100484.27
2018-09-30T00:47:29.208Z,100475.64
2018-09-30T00:49:56.738Z,100476.96
2018-09-30T00:52:25.636Z,100471.75
2018-09-30T00:54:54.891Z,100474.00
2018-09-30T00:57:22.489Z,100466.15
2018-09-30T00:59:50.450Z,100462.26
2018-09-30T01:02:18.938Z,100454.95
2018-09-30T01:04:46.495Z,100455.50
2018-09-30T01:07:14.504Z,100451.70
2018-09-30T01:09:42.096Z,100449.29
2018-09-30T01:12:09.650Z,100458.14
2018-09-30T01:14:37.665Z,100449.52
2018-09-30T01:17:05.201Z,100448.26
2018-09-30T01:19:32.775Z,100453.66
2018-09-30T01:22:01.438Z,100446.77
2018-09-30T01:24:29.018Z,100449.48
2018-09-30T01:26:56.631Z,100438.06
2018-09-30T01:29:24.662Z,100431.95
2018-09-30T01:31:52.207Z,100430.08
2018-09-30T01:34:20.356Z,100423.20
2018-09-30T01:36:48.265Z,100424.23
2018-09-30T01:39:15.849Z,100412.97
2018-09-30T01:41:43.400Z,100404.92
2018-09-30T01:44:11.428Z,100400.80
2018-09-30T01:46:39.007Z,100396.71
2018-09-30T01:49:06.607Z,100390.50
2018-09-30T01:51:34.628Z,100383.11
2018-09-30T01:54:02.185Z,100385.91
2018-09-30T01:56:29.750Z,100386.07
2018-09-30T01:58:57.597Z,100376.52
2018-09-30T02:01:25.995Z,100371.09
2018-09-30T02:03:53.580Z,100373.47
2018-09-30T02:06:22.394Z,100365.02
2018-09-30T02:08:50.348Z,100359.97
2018-09-30T02:11:18.008Z,100360.48
2018-09-30T02:13:45.546Z,100356.70
2018-09-30T02:16:13.151Z,100355.22
2018-09-30T02:18:40.766Z,100351.94
2018-09-30T02:21:08.677Z,100356.05
2018-09-30T02:23:36.832Z,100353.64
2018-09-30T02:26:04.506Z,100348.11
2018-09-30T02:28:32.086Z,100341.69
2018-09-30T02:31:00.100Z,100344.77
2018-09-30T02:33:27.696Z,100347.85
2018-09-30T02:35:56.336Z,100334.67
2018-09-30T02:38:23.908Z,100335.16
2018-09-30T02:40:52.293Z,100337.47
2018-09-30T02:43:20.921Z,100327.92
2018-09-30T02:45:48.498Z,100324.58
2018-09-30T02:48:16.158Z,100319.86
2018-09-30T02:50:43.723Z,100312.50
2018-09-30T02:53:12.600Z,100307.73
2018-09-30T02:55:40.435Z,100298.67
2018-09-30T02:58:10.907Z,100301.08
2018-09-30T03:00:38.495Z,100291.22
2018-09-30T03:03:06.470Z,100290.89
2018-09-30T03:05:35.864Z,100290.51
2018-09-30T03:08:08.493Z,100291.83
2018-09-30T03:10:36.103Z,100295.23
2018-09-30T03:13:04.103Z,100287.33
2018-09-30T03:15:32.313Z,100290.67
2018-09-30T03:17:59.937Z,100291.37
2018-09-30T03:20:28.409Z,100287.91
2018-09-30T03:22:56.758Z,100282.31
2018-09-30T03:25:25.266Z,100282.00
2018-09-30T03:27:53.784Z,100275.47
2018-09-30T03:30:24.538Z,100264.23
2018-09-30T03:32:53.296Z,100271.75
2018-09-30T03:35:21.451Z,100268.34
2018-09-30T03:37:50.972Z,100264.52
2018-09-30T03:40:20.667Z,100262.81
2018-09-30T03:42:48.501Z,100255.00
2018-09-30T03:45:16.103Z,100255.52
2018-09-30T03:47:45.211Z,100247.30
2018-09-30T03:50:13.811Z,100244.75
2018-09-30T03:52:42.410Z,100240.93
2018-09-30T03:55:10.514Z,100233.83
2018-09-30T03:57:41.457Z,100230.17
2018-09-30T04:00:11.048Z,100230.05
2018-09-30T04:02:38.669Z,100224.23
2018-09-30T04:05:08.715Z,100221.53
2018-09-30T04:07:37.901Z,100212.70
2018-09-30T04:10:05.595Z,100218.84
2018-09-30T04:12:33.355Z,100210.94
2018-09-30T04:15:04.873Z,100205.80
2018-09-30T04:17:32.499Z,100195.88
2018-09-30T04:20:00.018Z,100206.89
2018-09-30T04:22:29.418Z,100213.05
2018-09-30T04:24:56.980Z,100211.13
2018-09-30T04:27:25.289Z,100217.84
2018-09-30T04:29:53.065Z,100223.27
2018-09-30T04:32:27.144Z,100222.88
2018-09-30T04:34:54.767Z,100219.47
2018-09-30T04:37:22.522Z,100222.33
2018-09-30T04:39:50.099Z,100220.04
2018-09-30T04:42:18.554Z,100216.92
2018-09-30T04:44:46.110Z,100215.81
2018-09-30T04:47:13.655Z,100216.42
2018-09-30T04:49:42.682Z,100220.91
2018-09-30T04:52:11.237Z,100221.03
2018-09-30T04:54:39.796Z,100221.73
2018-09-30T04:57:07.794Z,100210.94
2018-09-30T04:59:35.932Z,100215.42
2018-09-30T05:02:04.200Z,100218.17
2018-09-30T05:04:31.751Z,100220.42
2018-09-30T05:06:59.755Z,100215.31
2018-09-30T05:09:28.365Z,100215.43
2018-09-30T05:11:56.850Z,100212.89
2018-09-30T05:14:25.277Z,100209.06
2018-09-30T05:16:52.879Z,100210.38
2018-09-30T05:19:21.386Z,100208.68
2018-09-30T05:21:48.920Z,100210.86
2018-09-30T05:24:16.804Z,100204.73
2018-09-30T05:26:46.098Z,100210.86
2018-09-30T05:29:13.660Z,100214.33
2018-09-30T05:31:41.350Z,100219.53
2018-09-30T05:34:09.265Z,100218.98
2018-09-30T05:36:36.804Z,100218.98
2018-09-30T05:39:06.458Z,100217.55
2018-09-30T05:41:34.958Z,100219.64
2018-09-30T05:44:03.365Z,100217.25
2018-09-30T05:46:32.049Z,100221.85
2018-09-30T05:48:59.868Z,100212.69
2018-09-30T05:51:27.467Z,100208.25
2018-09-30T05:53:56.526Z,100211.88
2018-09-30T05:56:25.475Z,100209.89
2018-09-30T05:58:53.262Z,100214.11
2018-09-30T06:01:20.844Z,100211.80
2018-09-30T06:03:50.631Z,100212.47
2018-09-30T06:06:18.228Z,100213.18
2018-09-30T06:08:46.395Z,100212.45
2018-09-30T06:11:14.292Z,100212.67
2018-09-30T06:13:44.359Z,100210.74
2018-09-30T06:16:12.656Z,100209.75
2018-09-30T06:18:41.403Z,100211.77
2018-09-30T06:21:09.807Z,100209.84
2018-09-30T06:23:37.371Z,100216.75
2018-09-30T06:26:07.214Z,100225.73
2018-09-30T06:28:36.481Z,100223.27
2018-09-30T06:31:04.039Z,100219.95
2018-09-30T06:33:31.658Z,100226.30
2018-09-30T06:36:01.114Z,100222.98
2018-09-30T06:38:28.675Z,100226.92
2018-09-30T06:40:56.715Z,100224.86
2018-09-30T06:43:24.303Z,100218.19
2018-09-30T06:45:52.297Z,100219.03
2018-09-30T06:48:19.894Z,100211.89
2018-09-30T06:50:47.852Z,100206.27
2018-09-30T06:53:15.818Z,100220.39
2018-09-30T06:55:46.227Z,100213.38
2018-09-30T06:58:13.806Z,100211.35
2018-09-30T07:00:42.785Z,100205.63
2018-09-30T07:03:12.232Z,100201.09
2018-09-30T07:05:40.378Z,100202.28
2018-09-30T07:08:07.973Z,100204.72
2018-09-30T07:10:36.738Z,100196.58
2018-09-30T07:13:04.451Z,100186.58
2018-09-30T07:15:33.232Z,100186.46
2018-09-30T07:18:02.787Z,100186.04
2018-09-30T07:20:30.563Z,100183.45
2018-09-30T07:23:00.339Z,100180.41
2018-09-30T07:25:29.167Z,100178.71
2018-09-30T07:27:56.804Z,100172.33
2018-09-30T07:30:24.405Z,100169.70
2018-09-30T07:32:53.398Z,100174.15
2018-09-30T07:35:21.764Z,100171.89
2018-09-30T07:37:49.698Z,100174.05
2018-09-30T07:40:18.646Z,100180.38
2018-09-30T07:42:47.321Z,100176.66
2018-09-30T07:45:15.486Z,100181.81
2018-09-30T07:47:43.867Z,100179.72
2018-09-30T07:50:12.366Z,100174.53
2018-09-30T07:52:40.005Z,100174.11
2018-09-30T07:55:07.890Z,100158.69
2018-09-30T07:57:37.362Z,100161.88
2018-09-30T08:00:04.892Z,100153.45
2018-09-30T08:02:33.678Z,100146.13
2018-09-30T08:05:04.838Z,100150.18
2018-09-30T08:07:32.537Z,100148.87
2018-09-30T08:10:00.477Z,100150.61
2018-09-30T08:12:28.685Z,100152.30
2018-09-30T08:14:56.211Z,100156.77
2018-09-30T08:17:25.616Z,100160.52
2018-09-30T08:19:53.984Z,100150.38
2018-09-30T08:22:22.505Z,100142.59
2018-09-30T08:24:55.699Z,100137.83
2018-09-30T08:27:24.278Z,100134.45
2018-09-30T08:29:52.177Z,100134.48
2018-09-30T08:32:21.283Z,100130.11
2018-09-30T08:34:51.277Z,100131.05
2018-09-30T08:38:23.588Z,100128.71
2018-09-30T08:40:56.630Z,100128.05
2018-09-30T08:43:24.342Z,100117.81
2018-09-30T08:45:54.261Z,100115.23
2018-09-30T08:48:21.838Z,100113.59
2018-09-30T08:50:50.606Z,100114.61
2018-09-30T08:53:18.520Z,100112.33
2018-09-30T08:55:46.191Z,100112.70
2018-09-30T08:58:14.734Z,100117.45
2018-09-30T09:00:44.303Z,100106.41
2018-09-30T09:03:12.923Z,100106.88
2018-09-30T09:05:41.454Z,100110.52
2018-09-30T09:08:10.622Z,100108.39
2018-09-30T09:10:39.329Z,100109.24
2018-09-30T09:13:06.899Z,100103.98
2018-09-30T09:15:34.973Z,100097.91
2018-09-30T09:18:02.571Z,100096.60
2018-09-30T09:20:30.126Z,100089.80
2018-09-30T09:22:58.050Z,100090.67
2018-09-30T09:25:25.962Z,100088.52
2018-09-30T09:27:53.544Z,100091.00
2018-09-30T09:30:23.359Z,100085.00
2018-09-30T09:32:50.919Z,100087.22
2018-09-30T09:35:18.448Z,100072.00
2018-09-30T09:37:46.459Z,100068.27
2018-09-30T09:40:14.988Z,100063.97
2018-09-30T09:42:43.338Z,100063.41
2018-09-30T09:45:15.295Z,100067.00
2018-09-30T09:47:44.757Z,100060.41
2018-09-30T09:50:12.304Z,100052.02
2018-09-30T09:52:42.819Z,100055.38
2018-09-30T09:55:11.299Z,100060.16
2018-09-30T09:57:40.256Z,100053.06
2018-09-30T10:00:08.081Z,100037.53
2018-09-30T10:02:35.723Z,100041.05
2018-09-30T10:05:05.095Z,100035.16
2018-09-30T10:07:34.681Z,100032.05
2018-09-30T10:10:04.796Z,100030.81
2018-09-30T10:12:35.157Z,100027.70
2018-09-30T10:15:03.086Z,100027.96
2018-09-30T10:17:32.743Z,100020.48
2018-09-30T10:20:00.302Z,100020.61
2018-09-30T10:22:30.716Z,100018.17
2018-09-30T10:25:02.592Z,100008.50
2018-09-30T10:27:30.169Z,100002.44
2018-09-30T10:29:59.218Z,100004.46
2018-09-30T10:32:38.556Z,99996.86
2018-09-30T10:35:09.641Z,99991.80
2018-09-30T10:37:37.483Z,99984.38
2018-09-30T10:40:07.653Z,99981.88
2018-09-30T10:42:35.663Z,99987.80
2018-09-30T10:45:05.297Z,99983.74
2018-09-30T10:47:35.313Z,99976.17
2018-09-30T10:50:05.483Z,99979.56
2018-09-30T10:52:33.904Z,99979.61
2018-09-30T10:55:01.478Z,99975.71
2018-09-30T10:57:29.430Z,99966.30
2018-09-30T10:59:57.027Z,99962.92
2018-09-30T11:02:25.503Z,99964.61
2018-09-30T11:04:54.805Z,99958.84
2018-09-30T11:07:23.454Z,99952.67
2018-09-30T11:09:51.459Z,99947.42
2018-09-30T11:12:20.410Z,99943.02
2018-09-30T11:14:49.691Z,99943.84
2018-09-30T11:17:18.308Z,99934.59
2018-09-30T11:19:45.837Z,99935.03
2018-09-30T11:22:15.163Z,99928.23
2018-09-30T11:24:43.073Z,99928.92
2018-09-30T11:27:11.122Z,99919.63
2018-09-30T11:29:38.676Z,99916.98
2018-09-30T11:32:06.667Z,99911.09
2018-09-30T11:34:41.167Z,99914.23
2018-09-30T11:37:10.126Z,99909.06
2018-09-30T11:39:38.863Z,99909.86
2018-09-30T11:42:10.096Z,99900.13
2018-09-30T11:44:41.199Z,99897.95
2018-09-30T11:47:09.235Z,99890.02
2018-09-30T11:49:38.426Z,99892.83
2018-09-30T11:52:08.793Z,99898.61
2018-09-30T11:54:38.260Z,99901.33
2018-09-30T11:57:06.573Z,99894.37
2018-09-30T11:59:34.916Z,99893.24
2018-09-30T12:02:02.817Z,99887.08
2018-09-30T12:04:31.168Z,99882.18
2018-09-30T12:06:58.705Z,99874.80
2018-09-30T12:09:26.582Z,99870.77
2018-09-30T12:11:56.577Z,99873.00
2018-09-30T12:14:24.836Z,99863.48
2018-09-30T12:16:55.646Z,99852.16
2018-09-30T12:19:25.082Z,99860.18
2018-09-30T12:21:53.632Z,99841.33
2018-09-30T12:24:24.539Z,99840.42
2018-09-30T12:26:52.111Z,99845.44
2018-09-30T12:29:23.405Z,99843.65
2018-09-30T12:31:51.285Z,99838.11
2018-09-30T12:34:22.245Z,99841.25
2018-09-30T12:36:52.924Z,99838.30
2018-09-30T12:39:21.394Z,99833.33
2018-09-30T12:41:50.798Z,99837.55
2018-09-30T12:44:19.986Z,99832.50
2018-09-30T12:46:48.701Z,99836.34
2018-09-30T12:49:16.322Z,99831.52
2018-09-30T12:51:44.603Z,99830.80
2018-09-30T12:54:14.293Z,99827.75
2018-09-30T12:56:41.855Z,99830.56
2018-09-30T12:59:10.343Z,99826.16
2018-09-30T13:01:39.921Z,99823.88
2018-09-30T13:04:07.476Z,99827.02
2018-09-30T13:06:36.882Z,99818.10
2018-09-30T13:09:11.571Z,99822.84
2018-09-30T13:11:43.730Z,99815.52
2018-09-30T13:14:11.877Z,99813.06
2018-09-30T13:16:40.558Z,99812.35
2018-09-30T13:19:08.140Z,99804.56
2018-09-30T13:21:37.294Z,99800.26
2018-09-30T13:24:07.739Z,99799.33
2018-09-30T13:26:39.221Z,99794.97
2018-09-30T13:29:07.821Z,99797.02
2018-09-30T13:31:37.706Z,99798.38
2018-09-30T13:34:05.286Z,99794.50
2018-09-30T13:36:33.563Z,99789.64
2018-09-30T13:39:02.251Z,99780.26
2018-09-30T13:41:30.786Z,99777.95
2018-09-30T13:43:58.484Z,99778.66
2018-09-30T13:46:26.390Z,99779.83
2018-09-30T13:48:53.981Z,99778.11
2018-09-30T13:51:25.174Z,99775.94
2018-09-30T13:53:54.446Z,99771.35
2018-09-30T13:56:21.991Z,99767.03
2018-09-30T13:58:49.525Z,99763.80
2018-09-30T14:01:17.530Z,99767.15
2018-09-30T14:03:46.386Z,99765.30
2018-09-30T14:06:16.121Z,99762.77
2018-09-30T14:08:45.217Z,99764.45
2018-09-30T14:11:13.378Z,99764.59
2018-09-30T14:13:41.889Z,99761.03
2018-09-30T14:16:11.910Z,99767.95
2018-09-30T14:18:41.042Z,99766.96
2018-09-30T14:21:10.856Z,99762.70
2018-09-30T14:23:40.723Z,99757.45
2018-09-30T14:26:08.303Z,99754.58
2018-09-30T14:28:36.487Z,99756.75
2018-09-30T14:31:08.767Z,99758.80
2018-09-30T14:36:14.797Z,99758.58
2018-09-30T14:38:44.270Z,99752.83
2018-09-30T14:41:13.051Z,99749.10
2018-09-30T14:43:43.225Z,99748.08
2018-09-30T14:46:10.802Z,99751.25
2018-09-30T14:48:39.364Z,99748.05
2018-09-30T14:51:08.054Z,99750.75
2018-09-30T14:53:35.762Z,99745.14
2018-09-30T14:56:05.767Z,99743.30
2018-09-30T14:58:35.422Z,99738.92
2018-09-30T15:01:03.796Z,99744.12
2018-09-30T15:03:31.399Z,99735.13
2018-09-30T15:06:00.190Z,99746.89
2018-09-30T15:08:31.017Z,99735.88
2018-09-30T15:11:00.543Z,99736.28
2018-09-30T15:13:29.109Z,99735.96
2018-09-30T15:15:59.349Z,99734.23
2018-09-30T15:18:29.064Z,99730.79
2018-09-30T15:20:56.624Z,99728.63
2018-09-30T15:23:24.386Z,99726.44
2018-09-30T15:25:53.071Z,99718.32
2018-09-30T15:28:21.152Z,99714.14
2018-09-30T15:30:57.428Z,99712.94
2018-09-30T15:33:29.209Z,99713.89
2018-09-30T15:35:58.121Z,99714.61
2018-09-30T15:38:26.370Z,99707.16
2018-09-30T15:40:54.232Z,99703.69
2018-09-30T15:43:22.543Z,99692.25
2018-09-30T15:45:50.086Z,99704.16
2018-09-30T15:48:24.585Z,99705.47
2018-09-30T15:50:53.321Z,99703.74
2018-09-30T15:53:21.977Z,99706.69
2018-09-30T15:55:49.574Z,99699.66
2018-09-30T15:58:18.872Z,99703.53
2018-09-30T16:00:48.611Z,99708.33
2018-09-30T16:03:18.410Z,99706.04
2018-09-30T16:05:45.987Z,99718.23
2018-09-30T16:08:18.532Z,99716.92
2018-09-30T16:10:46.559Z,99719.47
2018-09-30T16:13:15.864Z,99720.85
2018-09-30T16:15:46.879Z,99718.13
2018-09-30T16:18:15.296Z,99723.20
2018-09-30T16:20:46.532Z,99716.80
2018-09-30T16:23:14.584Z,99718.48
2018-09-30T16:25:43.188Z,99719.13
2018-09-30T16:28:12.602Z,99723.34
2018-09-30T16:30:45.296Z,99723.16
2018-09-30T16:33:14.014Z,99728.01
2018-09-30T16:35:44.322Z,99730.83
2018-09-30T16:38:13.238Z,99723.55
2018-09-30T16:40:43.189Z,99735.24
2018-09-30T16:43:13.438Z,99729.66
2018-09-30T16:45:44.232Z,99737.98
2018-09-30T16:50:49.212Z,99739.11
2018-09-30T16:53:20.443Z,99743.70
2018-09-30T16:55:48.729Z,99742.55
2018-09-30T16:58:18.613Z,99744.30
2018-09-30T17:00:46.602Z,99743.84
2018-09-30T17:03:14.223Z,99743.75
2018-09-30T17:05:42.776Z,99745.30
2018-09-30T17:08:13.403Z,99746.68
2018-09-30T17:10:41.235Z,99753.23
2018-09-30T17:13:10.970Z,99755.09
2018-09-30T17:15:39.678Z,99756.30
2018-09-30T17:18:08.232Z,99758.78
2018-09-30T17:20:39.482Z,99768.64
2018-09-30T17:23:09.759Z,99775.19
2018-09-30T17:25:39.274Z,99776.48
2018-09-30T17:28:17.639Z,99779.48
2018-09-30T17:30:49.326Z,99779.66
2018-09-30T17:33:20.220Z,99791.70
2018-09-30T17:35:50.133Z,99791.71
2018-09-30T17:38:18.705Z,99793.56
2018-09-30T17:40:46.391Z,99787.58
2018-09-30T17:43:16.581Z,99788.30
2018-09-30T17:45:45.258Z,99791.88
2018-09-30T17:48:14.247Z,99792.77
2018-09-30T17:50:46.546Z,99803.37
2018-09-30T17:53:18.461Z,99806.60
2018-09-30T17:55:46.294Z,99803.52
2018-09-30T17:58:15.603Z,99812.56
2018-09-30T18:00:45.522Z,99811.42
2018-09-30T18:03:14.299Z,99816.48
2018-09-30T18:05:44.961Z,99813.02
2018-09-30T18:08:15.357Z,99811.05
2018-09-30T18:10:42.923Z,99815.60
2018-09-30T18:13:16.930Z,99811.78
2018-09-30T18:18:32.451Z,99809.36
2018-09-30T18:21:02.527Z,99810.59
2018-09-30T18:23:31.338Z,99809.89
2018-09-30T18:26:01.219Z,99806.88
2018-09-30T18:28:28.784Z,99806.52
2018-09-30T18:30:58.444Z,99809.59
2018-09-30T18:33:30.306Z,99806.83
2018-09-30T18:36:02.220Z,99804.91
2018-09-30T18:38:30.483Z,99811.98
2018-09-30T18:40:58.772Z,99803.34
2018-09-30T18:43:27.750Z,99805.95
2018-09-30T18:45:56.545Z,99805.42
2018-09-30T18:48:26.183Z,99803.90
2018-09-30T18:50:54.506Z,99805.48
2018-09-30T18:53:22.567Z,99807.26
2018-09-30T18:55:54.081Z,99806.20
2018-09-30T18:58:22.184Z,99804.45
2018-09-30T19:00:55.852Z,99802.91
2018-09-30T19:03:25.428Z,99803.58
2018-09-30T19:05:53.773Z,99806.16
2018-09-30T19:08:30.561Z,99800.27
2018-09-30T19:11:02.008Z,99802.86
2018-09-30T19:13:32.771Z,99802.27
2018-09-30T19:16:02.472Z,99800.48
2018-09-30T19:18:30.778Z,99801.69
2018-09-30T19:21:06.357Z,99793.26
2018-09-30T19:23:36.231Z,99794.81
2018-09-30T19:26:03.835Z,99800.14
2018-09-30T19:28:37.608Z,99792.27
2018-09-30T19:31:09.025Z,99793.75
2018-09-30T19:33:37.427Z,99797.97
2018-09-30T19:36:07.800Z,99801.72
2018-09-30T19:38:35.386Z,99794.50
2018-09-30T19:41:04.694Z,99793.66
2018-09-30T19:43:36.494Z,99797.67
2018-09-30T19:46:05.956Z,99795.61
2018-09-30T19:48:35.527Z,99793.69
2018-09-30T19:51:03.553Z,99795.58
2018-09-30T19:53:31.361Z,99797.65
2018-09-30T19:56:00.650Z,99799.95
2018-09-30T19:58:28.563Z,99799.70
2018-09-30T20:00:57.889Z,99795.83
2018-09-30T20:03:29.000Z,99794.75
2018-09-30T20:06:04.632Z,99793.67
2018-09-30T20:08:32.842Z,99793.30
2018-09-30T20:11:00.409Z,99796.66
2018-09-30T20:13:29.223Z,99791.25
2018-09-30T20:15:57.662Z,99790.55
2018-09-30T20:18:25.904Z,99786.78
2018-09-30T20:20:55.040Z,99788.56
2018-09-30T20:23:22.566Z,99784.20
2018-09-30T20:25:50.095Z,99782.75
2018-09-30T20:28:18.069Z,99778.77
2018-09-30T20:30:45.638Z,99769.09
2018-09-30T20:33:13.458Z,99770.18
2018-09-30T20:35:51.615Z,99772.13
2018-09-30T20:38:20.845Z,99772.24
2018-09-30T20:40:48.538Z,99769.84
2018-09-30T20:43:17.120Z,99769.71
2018-09-30T20:45:44.625Z,99769.00
2018-09-30T20:48:17.030Z,99767.54
2018-09-30T20:50:45.570Z,99762.98
2018-09-30T20:53:13.230Z,99751.48
2018-09-30T20:55:43.392Z,99754.88
2018-09-30T20:58:15.793Z,99757.17
2018-09-30T21:00:43.425Z,99756.55
2018-09-30T21:03:13.797Z,99756.77
2018-09-30T21:05:48.291Z,99750.98
2018-09-30T21:08:17.951Z,99756.53
2018-09-30T21:10:46.502Z,99762.97
2018-09-30T21:13:16.551Z,99756.55
2018-09-30T21:15:45.039Z,99757.98
2018-09-30T21:18:13.446Z,99757.52
2018-09-30T21:20:43.269Z,99759.82
2018-09-30T21:23:10.815Z,99758.84
2018-09-30T21:25:38.346Z,99754.39
2018-09-30T21:28:06.397Z,99759.56
2018-09-30T21:30:37.105Z,99759.81
2018-09-30T21:33:07.728Z,99764.52
2018-09-30T21:35:38.758Z,99762.10
2018-09-30T21:38:07.959Z,99759.07
2018-09-30T21:40:37.280Z,99750.86
2018-09-30T21:43:09.167Z,99748.69
2018-09-30T21:45:37.342Z,99746.63
2018-09-30T21:48:05.550Z,99743.23
2018-09-30T21:50:33.571Z,99733.93
2018-09-30T21:53:01.094Z,99742.53
2018-09-30T21:55:28.662Z,99743.50
2018-09-30T21:57:56.541Z,99736.49
2018-09-30T22:00:29.305Z,99738.44
2018-09-30T22:02:56.842Z,99740.58
2018-09-30T22:05:25.259Z,99736.34
2018-09-30T22:07:56.809Z,99739.98
2018-09-30T22:10:24.470Z,99743.11
2018-09-30T22:12:52.374Z,99738.89
2018-09-30T22:15:20.043Z,99736.84
2018-09-30T22:17:51.842Z,99729.59
2018-09-30T22:20:20.622Z,99726.68
2018-09-30T22:22:50.146Z,99730.20
2018-09-30T22:25:18.359Z,99724.88
2018-09-30T22:27:46.621Z,99728.40
2018-09-30T22:30:16.189Z,99715.92
2018-09-30T22:32:43.860Z,99716.99
2018-09-30T22:35:11.928Z,99719.06
2018-09-30T22:37:39.457Z,99725.57
2018-09-30T22:40:07.436Z,99728.11
2018-09-30T22:42:35.386Z,99721.35
2018-09-30T22:45:05.088Z,99732.23
2018-09-30T22:47:32.644Z,99732.95
2018-09-30T22:50:12.355Z,99731.97
2018-09-30T22:52:40.935Z,99733.55
2018-09-30T22:55:08.630Z,99732.56
2018-09-30T22:57:36.531Z,99734.37
2018-09-30T23:00:04.088Z,99734.25
2018-09-30T23:02:31.617Z,99735.83
2018-09-30T23:04:59.507Z,99739.55
2018-09-30T23:07:27.091Z,99738.70
2018-09-30T23:09:54.695Z,99724.03
2018-09-30T23:12:25.278Z,99730.43
2018-09-30T23:14:52.875Z,99734.52
2018-09-30T23:17:21.060Z,99734.09
2018-09-30T23:19:49.544Z,99726.81
2018-09-30T23:22:17.089Z,99730.15
2018-09-30T23:24:44.649Z,99737.27
2018-09-30T23:27:12.554Z,99731.44
2018-09-30T23:29:40.319Z,99732.77
2018-09-30T23:32:08.549Z,99732.15
2018-09-30T23:34:36.527Z,99731.55
2018-09-30T23:37:04.084Z,99734.66
2018-09-30T23:39:31.642Z,99731.98
2018-09-30T23:42:00.596Z,99730.84
2018-09-30T23:44:28.172Z,99723.01
2018-09-30T23:46:56.250Z,99728.45
2018-09-30T23:49:23.818Z,99731.00
2018-09-30T23:51:51.827Z,99727.83
2018-09-30T23:54:19.398Z,99730.84
2018-09-30T23:56:46.979Z,99735.31
2018-09-30T23:59:14.602Z,99731.90
